createdAt,value
2022-12-23T00:00:38.110Z,10.80
2022-12-23T00:03:04.928Z,10.90
2022-12-23T00:05:37.877Z,11.30
2022-12-23T00:08:05.922Z,11.80
2022-12-23T00:10:32.795Z,11.50
2022-12-23T00:13:18.253Z,11.10
2022-12-23T00:15:44.892Z,11.30
2022-12-23T00:18:11.555Z,11.80
2022-12-23T00:20:38.261Z,12.30
2022-12-23T00:23:04.907Z,12.00
2022-12-23T00:25:42.006Z,11.40
2022-12-23T00:28:20.151Z,11.30
2022-12-23T00:30:47.036Z,12.10
2022-12-23T00:33:19.282Z,11.40
2022-12-23T00:35:46.250Z,11.30
2022-12-23T00:38:13.748Z,11.20
2022-12-23T00:40:59.533Z,11.50
2022-12-23T00:43:26.229Z,11.20
2022-12-23T00:45:52.900Z,11.20
2022-12-23T00:48:38.229Z,11.50
2022-12-23T00:51:05.032Z,11.40
2022-12-23T00:53:31.779Z,10.90
2022-12-23T00:55:58.631Z,11.10
2022-12-23T00:58:26.519Z,10.90
2022-12-23T01:01:12.567Z,11.00
2022-12-23T01:03:58.028Z,11.00
2022-12-23T01:06:24.787Z,12.20
2022-12-23T01:08:51.571Z,11.40
2022-12-23T01:11:19.514Z,11.00
2022-12-23T01:13:46.219Z,11.30
2022-12-23T01:16:17.707Z,11.20
2022-12-23T01:18:45.036Z,10.90
2022-12-23T01:21:13.881Z,10.90
2022-12-23T01:23:45.837Z,11.10
2022-12-23T01:26:12.617Z,10.90
2022-12-23T01:28:39.291Z,10.80
2022-12-23T01:31:09.563Z,10.70
2022-12-23T01:33:36.446Z,11.00
2022-12-23T01:36:05.216Z,11.20
2022-12-23T01:38:31.911Z,10.80
2022-12-23T01:40:58.864Z,10.90
2022-12-23T01:43:48.663Z,10.60
2022-12-23T01:46:16.433Z,11.30
2022-12-23T01:48:52.058Z,10.90
2022-12-23T01:51:25.778Z,10.80
2022-12-23T01:53:59.409Z,10.70
2022-12-23T01:56:38.733Z,11.80
2022-12-23T01:59:32.005Z,11.00
2022-12-23T02:02:17.783Z,11.00
2022-12-23T02:04:44.822Z,10.90
2022-12-23T02:07:31.940Z,10.50
2022-12-23T02:09:58.961Z,10.40
2022-12-23T02:12:43.578Z,10.50
2022-12-23T02:15:37.416Z,10.30
2022-12-23T02:18:38.420Z,10.40
2022-12-23T02:21:31.894Z,10.50
2022-12-23T02:24:22.748Z,10.90
2022-12-23T02:27:08.209Z,10.60
2022-12-23T02:29:53.026Z,10.70
2022-12-23T02:32:43.394Z,10.70
2022-12-23T02:35:29.332Z,10.50
2022-12-23T02:38:11.864Z,10.60
2022-12-23T02:41:09.724Z,10.40
2022-12-23T02:43:46.718Z,10.50
2022-12-23T02:46:24.311Z,10.50
2022-12-23T02:49:00.557Z,10.30
2022-12-23T02:51:31.773Z,10.20
2022-12-23T02:54:04.101Z,10.10
2022-12-23T02:56:33.281Z,10.10
2022-12-23T02:59:12.200Z,10.20
2022-12-23T03:01:39.944Z,10.60
2022-12-23T03:04:07.076Z,10.50
2022-12-23T03:06:39.706Z,10.30
2022-12-23T03:09:07.312Z,10.60
2022-12-23T03:12:00.085Z,10.50
2022-12-23T03:14:42.465Z,10.30
2022-12-23T03:17:48.652Z,10.20
2022-12-23T03:20:26.569Z,10.00
2022-12-23T03:23:02.600Z,10.20
2022-12-23T03:25:38.456Z,10.20
2022-12-23T03:28:15.321Z,10.30
2022-12-23T03:30:46.466Z,10.10
2022-12-23T03:33:29.824Z,10.10
2022-12-23T03:36:02.126Z,10.10
2022-12-23T03:38:33.042Z,9.90
2022-12-23T03:41:06.537Z,9.90
2022-12-23T03:43:54.806Z,9.90
2022-12-23T03:46:44.838Z,10.10
2022-12-23T03:49:16.593Z,10.00
2022-12-23T03:51:56.232Z,9.70
2022-12-23T03:54:37.053Z,9.80
2022-12-23T03:57:07.404Z,9.70
2022-12-23T03:59:38.191Z,9.70
2022-12-23T04:02:32.040Z,9.70
2022-12-23T04:05:24.959Z,9.80
2022-12-23T04:08:18.679Z,9.90
2022-12-23T04:10:46.419Z,9.70
2022-12-23T04:13:13.409Z,9.70
2022-12-23T04:15:41.695Z,9.70
2022-12-23T04:18:10.459Z,9.80
2022-12-23T04:20:37.540Z,9.90
2022-12-23T04:23:04.486Z,9.80
2022-12-23T04:25:31.147Z,9.70
2022-12-23T04:27:57.782Z,9.80
2022-12-23T04:30:28.063Z,9.90
2022-12-23T04:33:00.260Z,9.60
2022-12-23T04:35:30.624Z,9.90
2022-12-23T04:37:57.245Z,9.80
2022-12-23T04:40:23.965Z,9.70
2022-12-23T04:42:50.692Z,9.70
2022-12-23T04:45:17.417Z,9.60
2022-12-23T04:47:44.143Z,9.60
2022-12-23T04:50:14.754Z,9.60
2022-12-23T04:52:42.444Z,9.50
2022-12-23T04:55:10.647Z,9.50
2022-12-23T04:57:37.548Z,9.50
2022-12-23T05:00:05.485Z,9.50
2022-12-23T05:02:32.295Z,9.50
2022-12-23T05:04:59.071Z,9.60
2022-12-23T05:07:25.702Z,9.50
2022-12-23T05:09:52.363Z,9.50
2022-12-23T05:12:19.110Z,9.40
2022-12-23T05:14:45.842Z,9.40
2022-12-23T05:17:12.476Z,9.50
2022-12-23T05:19:39.158Z,9.50
2022-12-23T05:22:05.890Z,9.50
2022-12-23T05:24:32.652Z,9.50
2022-12-23T05:27:00.357Z,9.50
2022-12-23T05:29:28.523Z,9.50
2022-12-23T05:31:55.286Z,9.50
2022-12-23T05:34:22.189Z,9.50
2022-12-23T05:36:48.908Z,9.50
2022-12-23T05:39:15.586Z,9.50
2022-12-23T05:41:42.292Z,9.50
2022-12-23T05:44:08.939Z,9.50
2022-12-23T05:46:35.673Z,9.50
2022-12-23T05:49:02.384Z,9.50
2022-12-23T05:51:29.090Z,9.50
2022-12-23T05:53:55.864Z,9.40
2022-12-23T05:56:22.583Z,9.50
2022-12-23T05:58:49.247Z,9.40
2022-12-23T06:01:16.081Z,9.40
2022-12-23T06:03:43.096Z,9.60
2022-12-23T06:06:09.843Z,9.50
2022-12-23T06:08:36.590Z,10.30
2022-12-23T06:11:06.452Z,10.80
2022-12-23T06:13:33.199Z,11.20
2022-12-23T06:15:59.816Z,11.40
2022-12-23T06:18:26.441Z,11.50
2022-12-23T06:20:53.156Z,11.50
2022-12-23T06:23:19.869Z,11.80
2022-12-23T06:25:46.593Z,12.00
2022-12-23T06:28:13.237Z,11.90
2022-12-23T06:30:54.493Z,12.10
2022-12-23T06:33:21.393Z,12.10
2022-12-23T06:35:48.139Z,12.00
2022-12-23T06:38:14.893Z,12.10
2022-12-23T06:40:41.684Z,12.30
2022-12-23T06:43:08.445Z,12.40
2022-12-23T06:45:35.134Z,12.40
2022-12-23T06:48:01.853Z,12.90
2022-12-23T06:50:29.554Z,13.00
2022-12-23T06:52:56.346Z,12.90
2022-12-23T06:55:23.383Z,12.80
2022-12-23T06:57:50.027Z,12.90
2022-12-23T07:00:17.069Z,12.90
2022-12-23T07:02:43.949Z,13.10
2022-12-23T07:05:10.756Z,13.20
2022-12-23T07:07:37.506Z,13.10
2022-12-23T07:10:04.802Z,13.40
2022-12-23T07:12:31.452Z,13.40
2022-12-23T07:14:58.177Z,13.20
2022-12-23T07:17:24.826Z,13.30
2022-12-23T07:19:51.555Z,13.30
2022-12-23T07:22:18.207Z,13.10
2022-12-23T07:24:44.886Z,13.10
2022-12-23T07:27:11.608Z,13.80
2022-12-23T07:29:38.461Z,13.30
2022-12-23T07:32:05.165Z,13.40
2022-12-23T07:34:32.075Z,14.10
2022-12-23T07:36:58.873Z,14.60
2022-12-23T07:39:25.534Z,15.00
2022-12-23T07:42:08.988Z,15.30
2022-12-23T07:44:38.894Z,15.40
2022-12-23T07:47:05.555Z,15.40
2022-12-23T07:49:32.190Z,15.50
2022-12-23T07:51:58.936Z,15.50
2022-12-23T07:54:25.654Z,15.40
2022-12-23T07:56:52.389Z,15.40
2022-12-23T07:59:19.037Z,15.40
2022-12-23T08:01:45.917Z,15.40
2022-12-23T08:04:12.689Z,15.40
2022-12-23T08:06:41.383Z,15.40
2022-12-23T08:09:09.471Z,15.50
2022-12-23T08:11:36.210Z,14.80
2022-12-23T08:14:02.876Z,15.20
2022-12-23T08:16:29.613Z,15.40
2022-12-23T08:18:56.459Z,15.40
2022-12-23T08:21:23.189Z,15.40
2022-12-23T08:23:51.287Z,15.50
2022-12-23T08:26:27.452Z,15.50
2022-12-23T08:28:54.135Z,15.50
2022-12-23T08:31:22.297Z,15.40
2022-12-23T08:33:52.444Z,15.50
2022-12-23T08:36:23.794Z,15.40
2022-12-23T08:38:52.758Z,15.40
2022-12-23T08:41:27.501Z,14.40
2022-12-23T08:43:55.862Z,15.00
2022-12-23T08:46:23.523Z,15.20
2022-12-23T08:48:50.814Z,15.20
2022-12-23T08:51:20.496Z,15.30
2022-12-23T08:53:54.806Z,15.30
2022-12-23T08:56:27.333Z,15.30
2022-12-23T08:58:55.290Z,15.00
2022-12-23T09:01:24.474Z,15.10
2022-12-23T09:03:52.732Z,14.30
2022-12-23T09:06:29.496Z,15.10
2022-12-23T09:08:57.653Z,14.90
2022-12-23T09:11:26.688Z,15.10
2022-12-23T09:13:53.916Z,14.70
2022-12-23T09:16:21.086Z,15.20
2022-12-23T09:18:47.814Z,15.30
2022-12-23T09:21:18.083Z,15.20
2022-12-23T09:23:44.785Z,13.10
2022-12-23T09:26:30.347Z,13.70
2022-12-23T09:28:57.891Z,14.40
2022-12-23T09:31:29.291Z,15.00
2022-12-23T09:33:59.328Z,15.20
2022-12-23T09:36:26.034Z,15.20
2022-12-23T09:38:57.478Z,15.20
2022-12-23T09:41:46.254Z,15.20
2022-12-23T09:44:27.445Z,15.30
2022-12-23T09:47:18.236Z,15.30
2022-12-23T09:49:52.540Z,15.30
2022-12-23T09:52:41.970Z,15.30
2022-12-23T09:55:11.924Z,15.30
2022-12-23T09:57:56.698Z,15.30
2022-12-23T10:00:25.112Z,15.20
2022-12-23T10:03:06.760Z,15.20
2022-12-23T10:06:18.672Z,15.20
2022-12-23T10:08:48.727Z,15.10
2022-12-23T10:11:17.904Z,15.30
2022-12-23T10:13:58.337Z,15.30
2022-12-23T10:16:30.625Z,15.30
2022-12-23T10:19:08.990Z,15.10
2022-12-23T10:21:45.388Z,15.30
2022-12-23T10:24:21.612Z,15.20
2022-12-23T10:26:57.720Z,15.20
2022-12-23T10:29:32.421Z,15.20
2022-12-23T10:32:29.435Z,15.20
2022-12-23T10:35:22.034Z,15.10
2022-12-23T10:38:01.985Z,15.10
2022-12-23T10:40:40.802Z,15.30
2022-12-23T10:43:17.229Z,14.60
2022-12-23T10:45:58.302Z,12.70
2022-12-23T10:48:59.258Z,13.40
2022-12-23T10:51:33.976Z,14.60
2022-12-23T10:54:08.606Z,15.00
2022-12-23T10:56:35.603Z,15.00
2022-12-23T10:59:06.443Z,14.80
2022-12-23T11:01:35.445Z,15.00
2022-12-23T11:04:16.310Z,15.10
2022-12-23T11:06:47.254Z,15.00
2022-12-23T11:09:24.848Z,15.10
2022-12-23T11:12:02.940Z,15.20
2022-12-23T11:14:54.443Z,15.20
2022-12-23T11:17:28.461Z,15.40
2022-12-23T11:20:10.274Z,15.30
2022-12-23T11:22:51.813Z,15.40
2022-12-23T11:25:33.250Z,15.40
2022-12-23T11:28:16.484Z,15.50
2022-12-23T11:30:57.279Z,15.40
2022-12-23T11:33:28.591Z,15.40
2022-12-23T11:36:12.732Z,15.50
2022-12-23T11:38:52.536Z,15.40
2022-12-23T11:41:26.628Z,15.40
2022-12-23T11:44:00.573Z,15.40
2022-12-23T11:46:33.731Z,13.40
2022-12-23T11:49:18.972Z,12.50
2022-12-23T11:51:48.493Z,11.80
2022-12-23T11:54:18.375Z,11.40
2022-12-23T11:56:47.999Z,11.10
2022-12-23T11:59:39.887Z,11.10
2022-12-23T12:02:30.983Z,11.10
2022-12-23T12:05:16.427Z,11.00
2022-12-23T12:07:46.666Z,10.80
2022-12-23T12:10:27.965Z,10.70
2022-12-23T12:13:02.738Z,10.50
2022-12-23T12:15:46.645Z,10.80
2022-12-23T12:18:19.214Z,10.70
2022-12-23T12:20:50.734Z,10.80
2022-12-23T12:23:24.408Z,10.60
2022-12-23T12:26:00.678Z,10.60
2022-12-23T12:28:47.022Z,11.40
2022-12-23T12:31:26.204Z,13.40
2022-12-23T12:34:07.997Z,13.70
2022-12-23T12:36:41.156Z,14.10
2022-12-23T12:39:17.267Z,14.20
2022-12-23T12:42:03.589Z,14.40
2022-12-23T12:44:43.406Z,14.60
2022-12-23T12:47:44.715Z,12.00
2022-12-23T12:50:07.016Z,13.60
2022-12-23T12:52:40.526Z,14.20
2022-12-23T12:55:15.142Z,11.90
2022-12-23T12:57:42.274Z,11.30
2022-12-23T13:00:17.634Z,11.10
2022-12-23T13:03:00.240Z,12.20
2022-12-23T13:05:39.584Z,11.10
2022-12-23T13:08:25.353Z,10.60
2022-12-23T13:10:58.481Z,10.70
2022-12-23T13:13:53.543Z,11.10
2022-12-23T13:16:21.277Z,10.80
2022-12-23T13:19:05.742Z,11.30
2022-12-23T13:21:38.108Z,11.60
2022-12-23T13:24:52.252Z,11.80
2022-12-23T13:27:35.736Z,11.40
2022-12-23T13:30:17.655Z,11.20
2022-12-23T13:32:52.657Z,11.20
2022-12-23T13:35:52.255Z,11.20
2022-12-23T13:38:49.695Z,11.10
2022-12-23T13:41:29.315Z,11.30
2022-12-23T13:44:00.533Z,11.30
2022-12-23T13:46:51.283Z,11.30
2022-12-23T13:49:39.620Z,11.10
2022-12-23T13:52:43.761Z,11.00
2022-12-23T13:55:38.469Z,11.40
2022-12-23T13:58:13.644Z,11.40
2022-12-23T14:00:40.457Z,11.30
2022-12-23T14:03:10.148Z,10.90
2022-12-23T14:05:52.711Z,10.70
2022-12-23T14:08:19.474Z,10.90
2022-12-23T14:10:55.471Z,10.90
2022-12-23T14:13:26.763Z,11.10
2022-12-23T14:16:15.115Z,10.80
2022-12-23T14:19:01.388Z,10.70
2022-12-23T14:21:38.803Z,11.20
2022-12-23T14:24:23.983Z,11.80
2022-12-23T14:26:59.812Z,11.10
2022-12-23T14:29:53.383Z,11.10
2022-12-23T14:32:24.942Z,11.90
2022-12-23T14:35:16.748Z,11.20
2022-12-23T14:38:03.447Z,11.20
2022-12-23T14:40:42.039Z,11.30
2022-12-23T14:43:44.224Z,11.30
2022-12-23T14:46:43.732Z,11.40
2022-12-23T14:49:40.151Z,11.30
2022-12-23T14:52:48.346Z,11.10
2022-12-23T14:55:32.999Z,11.10
2022-12-23T14:58:13.161Z,11.00
2022-12-23T15:01:15.226Z,11.00
2022-12-23T15:03:54.550Z,11.10
2022-12-23T15:06:40.150Z,10.70
2022-12-23T15:09:08.548Z,10.60
2022-12-23T15:11:37.405Z,10.80
2022-12-23T15:14:10.313Z,10.70
2022-12-23T15:16:40.494Z,10.60
2022-12-23T15:19:25.467Z,10.60
2022-12-23T15:22:17.833Z,10.60
2022-12-23T15:24:47.819Z,10.90
2022-12-23T15:27:28.904Z,10.80
2022-12-23T15:29:56.713Z,10.90
2022-12-23T15:32:25.250Z,10.80
2022-12-23T15:34:53.142Z,10.90
2022-12-23T15:37:27.723Z,10.50
2022-12-23T15:40:04.529Z,11.00
2022-12-23T15:42:35.454Z,10.90
2022-12-23T15:45:23.673Z,10.90
2022-12-23T15:47:51.040Z,10.20
2022-12-23T15:50:19.369Z,10.50
2022-12-23T15:52:48.882Z,10.80
2022-12-23T15:55:31.406Z,11.10
2022-12-23T15:57:59.930Z,11.20
2022-12-23T16:00:39.551Z,10.60
2022-12-23T16:03:25.161Z,10.30
2022-12-23T16:05:52.309Z,10.60
2022-12-23T16:08:29.031Z,11.10
2022-12-23T16:11:14.401Z,11.40
2022-12-23T16:13:58.065Z,11.80
2022-12-23T16:16:40.791Z,11.60
2022-12-23T16:19:46.194Z,11.30
2022-12-23T16:22:15.794Z,11.70
2022-12-23T16:25:20.999Z,11.60
2022-12-23T16:27:54.186Z,10.70
2022-12-23T16:30:34.247Z,10.40
2022-12-23T16:33:06.939Z,10.60
2022-12-23T16:35:37.895Z,10.90
2022-12-23T16:38:12.264Z,10.90
2022-12-23T16:40:39.534Z,10.90
2022-12-23T16:43:06.279Z,11.20
2022-12-23T16:45:34.848Z,11.10
2022-12-23T16:48:07.273Z,11.40
2022-12-23T16:50:33.949Z,11.30
2022-12-23T16:53:00.724Z,11.00
2022-12-23T16:55:27.466Z,10.70
2022-12-23T16:57:54.183Z,10.00
2022-12-23T17:00:21.061Z,9.80
2022-12-23T17:02:48.342Z,9.80
2022-12-23T17:05:17.369Z,9.80
2022-12-23T17:07:45.631Z,9.80
2022-12-23T17:10:14.512Z,9.80
2022-12-23T17:12:41.929Z,9.80
2022-12-23T17:15:20.210Z,10.30
2022-12-23T17:17:49.019Z,10.60
2022-12-23T17:20:16.874Z,11.00
2022-12-23T17:22:47.330Z,11.30
2022-12-23T17:25:15.331Z,11.30
2022-12-23T17:27:44.893Z,11.20
2022-12-23T17:30:21.784Z,11.20
2022-12-23T17:32:56.657Z,11.30
2022-12-23T17:35:24.815Z,11.10
2022-12-23T17:37:52.218Z,11.20
2022-12-23T17:40:19.419Z,11.60
2022-12-23T17:42:47.068Z,12.10
2022-12-23T17:45:26.635Z,12.00
2022-12-23T17:47:53.537Z,11.90
2022-12-23T17:50:20.681Z,12.30
2022-12-23T17:52:47.583Z,12.40
2022-12-23T17:55:21.652Z,12.80
2022-12-23T17:57:48.743Z,13.30
2022-12-23T18:00:24.112Z,12.70
2022-12-23T18:02:54.779Z,13.20
2022-12-23T18:05:29.823Z,12.70
2022-12-23T18:08:00.829Z,12.70
2022-12-23T18:10:32.488Z,12.80
2022-12-23T18:13:09.585Z,13.20
2022-12-23T18:15:39.335Z,13.20
2022-12-23T18:18:28.594Z,13.40
2022-12-23T18:20:58.937Z,14.00
2022-12-23T18:23:29.710Z,13.30
2022-12-23T18:25:56.941Z,12.60
2022-12-23T18:28:24.471Z,12.60
2022-12-23T18:30:52.695Z,12.80
2022-12-23T18:33:20.671Z,12.50
2022-12-23T18:35:49.576Z,12.50
2022-12-23T18:38:17.719Z,12.80
2022-12-23T18:40:44.801Z,12.80
2022-12-23T18:43:19.984Z,12.50
2022-12-23T18:45:52.472Z,12.70
2022-12-23T18:48:21.442Z,12.60
2022-12-23T18:50:48.294Z,12.60
2022-12-23T18:53:23.357Z,12.60
2022-12-23T18:55:51.762Z,12.90
2022-12-23T18:58:18.610Z,12.70
2022-12-23T19:00:45.941Z,12.90
2022-12-23T19:03:27.777Z,12.80
2022-12-23T19:05:55.895Z,12.40
2022-12-23T19:08:27.188Z,12.50
2022-12-23T19:10:55.748Z,12.50
2022-12-23T19:13:22.962Z,12.70
2022-12-23T19:15:50.188Z,12.80
2022-12-23T19:18:19.140Z,13.10
2022-12-23T19:20:47.211Z,13.30
2022-12-23T19:23:14.951Z,13.10
2022-12-23T19:25:46.180Z,13.50
2022-12-23T19:28:19.114Z,13.60
2022-12-23T19:30:45.906Z,13.60
2022-12-23T19:33:13.291Z,13.00
2022-12-23T19:35:43.409Z,12.70
2022-12-23T19:38:10.663Z,12.60
2022-12-23T19:40:37.537Z,12.70
2022-12-23T19:43:04.584Z,12.60
2022-12-23T19:45:31.474Z,12.90
2022-12-23T19:47:58.133Z,13.00
2022-12-23T19:50:26.566Z,12.90
2022-12-23T19:52:59.230Z,12.90
2022-12-23T19:55:25.891Z,13.20
2022-12-23T19:57:52.581Z,12.90
2022-12-23T20:00:21.303Z,12.80
2022-12-23T20:02:58.315Z,13.70
2022-12-23T20:05:25.658Z,12.90
2022-12-23T20:07:52.308Z,13.90
2022-12-23T20:10:18.991Z,13.90
2022-12-23T20:12:45.747Z,13.40
2022-12-23T20:15:12.438Z,13.60
2022-12-23T20:17:40.772Z,13.30
2022-12-23T20:20:08.116Z,13.10
2022-12-23T20:22:34.897Z,13.40
2022-12-23T20:25:01.610Z,13.90
2022-12-23T20:27:29.381Z,13.80
2022-12-23T20:29:56.137Z,13.40
2022-12-23T20:32:22.779Z,13.20
2022-12-23T20:34:50.176Z,13.60
2022-12-23T20:37:17.552Z,13.20
2022-12-23T20:39:44.294Z,13.10
2022-12-23T20:42:14.157Z,13.00
2022-12-23T20:44:40.870Z,13.40
2022-12-23T20:47:07.661Z,13.30
2022-12-23T20:49:34.419Z,13.10
2022-12-23T20:52:01.507Z,12.70
2022-12-23T20:54:33.259Z,13.30
2022-12-23T20:57:02.588Z,13.20
2022-12-23T20:59:29.502Z,13.20
2022-12-23T21:01:58.834Z,13.30
2022-12-23T21:04:25.637Z,13.80
2022-12-23T21:06:54.794Z,13.70
2022-12-23T21:09:21.577Z,13.80
2022-12-23T21:11:48.435Z,13.10
2022-12-23T21:14:16.083Z,13.10
2022-12-23T21:16:43.673Z,13.30
2022-12-23T21:19:18.681Z,13.00
2022-12-23T21:21:46.128Z,13.10
2022-12-23T21:24:12.990Z,13.60
2022-12-23T21:26:39.775Z,13.20
2022-12-23T21:29:08.303Z,13.00
2022-12-23T21:31:38.568Z,13.30
2022-12-23T21:34:05.988Z,13.40
2022-12-23T21:36:36.114Z,14.40
2022-12-23T21:39:05.146Z,13.40
2022-12-23T21:41:37.176Z,13.60
2022-12-23T21:44:05.859Z,13.60
2022-12-23T21:46:32.706Z,13.70
2022-12-23T21:49:00.971Z,14.20
2022-12-23T21:51:39.397Z,14.50
2022-12-23T21:54:08.196Z,14.20
2022-12-23T21:56:35.076Z,14.30
2022-12-23T21:59:06.864Z,14.20
2022-12-23T22:01:34.255Z,14.40
2022-12-23T22:04:01.066Z,14.30
2022-12-23T22:06:38.993Z,14.40
2022-12-23T22:09:07.698Z,14.10
2022-12-23T22:11:35.876Z,13.80
2022-12-23T22:14:04.460Z,13.50
2022-12-23T22:16:31.792Z,13.80
2022-12-23T22:19:00.369Z,13.90
2022-12-23T22:21:29.717Z,14.20
2022-12-23T22:23:56.741Z,14.60
2022-12-23T22:26:29.898Z,14.40
2022-12-23T22:28:58.671Z,14.60
2022-12-23T22:31:29.203Z,14.70
2022-12-23T22:34:05.308Z,14.50
2022-12-23T22:36:32.659Z,14.90
2022-12-23T22:39:01.661Z,14.50
2022-12-23T22:41:30.382Z,14.40
2022-12-23T22:43:58.618Z,14.70
2022-12-23T22:46:26.152Z,14.30
2022-12-23T22:48:53.410Z,14.70
2022-12-23T22:51:24.853Z,14.40
2022-12-23T22:53:51.650Z,14.70
2022-12-23T22:56:20.003Z,14.60
2022-12-23T22:58:47.220Z,14.50
2022-12-23T23:01:22.341Z,14.30
2022-12-23T23:03:56.665Z,14.60
2022-12-23T23:06:25.739Z,14.10
2022-12-23T23:08:52.619Z,14.60
2022-12-23T23:11:20.461Z,14.10
2022-12-23T23:13:47.177Z,13.80
2022-12-23T23:16:14.029Z,14.30
2022-12-23T23:18:40.729Z,14.00
2022-12-23T23:21:09.243Z,13.40
2022-12-23T23:23:36.010Z,14.10
2022-12-23T23:26:02.987Z,14.70
2022-12-23T23:28:31.849Z,14.30
2022-12-23T23:31:23.831Z,13.30
2022-12-23T23:33:45.317Z,13.70
2022-12-23T23:36:12.019Z,14.50
2022-12-23T23:38:38.829Z,14.80
2022-12-23T23:41:05.614Z,14.00
2022-12-23T23:43:32.428Z,14.50
2022-12-23T23:45:59.307Z,14.40
2022-12-23T23:48:26.023Z,14.70
2022-12-23T23:50:52.655Z,14.40
2022-12-23T23:53:19.514Z,13.80
2022-12-23T23:55:46.179Z,13.80
2022-12-23T23:58:13.025Z,13.90
